ENBR/BGO METAR and TAF weather

Enter ICAO airport designator
Station Type Date Time Source
ENBR METAR 2021/07/27 22:20 UTC NOAA

ENBR 272220Z 34006KT 7000 FEW003 BKN075 17/17 Q1006 RMK WIND 1200FT 02010KT


Station Type Date Time Source
ENBR Decoded METAR 2021/07/27 22:20 UTC NOAA

Bergen / Flesland, Norway (ENBR) 60-17N 005-14E 50M
Jul 27, 2021 - 06:20 PM EDT / 2021.07.27 2220 UTC
Wind: from the NNW (340 degrees) at 7 MPH (6 KT):0
Visibility: 4 mile(s):0
Sky conditions: mostly cloudy
Temperature: 62 F (17 C)
Dew Point: 62 F (17 C)
Relative Humidity: 100%
Pressure (altimeter): 29.71 in. Hg (1006 hPa)
ob: ENBR 272220Z 34006KT 7000 FEW003 BKN075 17/17 Q1006 RMK WIND 1200FT 02010KT
cycle: 22

Station Type Date Time Source
ENBR TAF 2021/07/27 18:57 UTC NOAA

TAF ENBR 271700Z 2718/2818 VRB05KT 9999 FEW005 BKN020
TEMPO 2718/2818 SHRA SCT008 BKN020CB PROB30
TEMPO 2718/2724 4000 TSRA BKN008 SCT015CB
BECMG 2809/2812 17010KT

Example: see airport list